Ashgabat, Turkmenistan

6:58 PM TMT on November 01, 2014 (GMT +0500)
Ashgabat | Change Station
CLOSE
Current Station
Airport
Location: Ashgabat,
Elevation: 689 ft
Nearby Weather Stations

Elev 689 ft 37.98 °N, 58.37 °E | Updated 28 minutes ago

Overcast
Overcast
66 °F
Feels Like 66 °F
N
0
Wind Variable Wind from North

Today
High -- | Low -- °F
--% Chance of Precip.
Yesterday
High -- | Low -- °F
Precip. -- in
7:31 AM 6:08 PM
Waxing Gibbous, 66% visible
Pressure 29.77 in
Visibility 6.2 miles
Clouds Scattered Clouds 5000 ft
Mostly Cloudy 10000 ft
Overcast 20000 ft
Dew Point 27 °F
Humidity 23%
Rainfall 0.00 in
Snow Depth Not available.
UV 0 out of 12
Pollen Not available.
Air Quality Not available.
Flu Activity Not available.
METAR UTAA 011330Z 00000MPS 9999 SCT050 BKN100 OVC200 19/M03 Q1008 R30/CLRD70 NOSIG

More Conditions Fewer Conditions

Pressure 29.77 in
Visibility 6.2 miles
Clouds Scattered Clouds 5000 ft
Mostly Cloudy 10000 ft
Overcast 20000 ft
Dew Point 27 °F
Humidity 23%
Rainfall 0.00 in
Snow Depth Not available.
UV 0 out of 12
Pollen Not available.
Air Quality Not available.
Flu Activity Not available.
METAR UTAA 011330Z 00000MPS 9999 SCT050 BKN100 OVC200 19/M03 Q1008 R30/CLRD70 NOSIG

More Conditions Fewer Conditions

10-Day Weather Forecast

Almanac

Astronomy

Nov. 01, 2014 Rise Set
Actual Time
Civil Twilight
Nautical Twilight
Astronomical Twilight
Moon
Length of Visible Light
Length of Day
Tomorrow will be .
, % of the Moon is Illuminated

Today's Extremes

Country Highs Country Lows

Community

WunderPhotos

Upload Photos

1,766,937 photos uploaded!

WunderBlogs® & News

Nearby

Air Quality

  Air Quality AQ Index Pollutant
Not available.

Snow Depth

Station Depth Elevation

Earthquake Activity

City Distance Mag. Time & Date
Minimum magnitude displayed is 2.5.

Coastal Water Temperatures

Place Temperature

Nearby Weather Stations